Eau Claire, WI

2:30 AM CST on December 20, 2014 (GMT -0600)
Phillips Hall Rooftop | Change Station
CLOSE
Current Station
Personal Weather Station
Location: Eau Claire, WI
Elevation: 820 ft
Nearby Weather Stations

Elev 820 ft 44.80 °N, 91.50 °W | Updated 200 days ago

Sleet
Sleet
25 °F
Feels Like 25 °F
N
5
Wind Variable Wind from SSE
Gusts 5 mph

Today
High -- | Low -- °F
--% Chance of Precip.
Yesterday
High -- | Low -- °F
Precip. -- in
7:39 AM 4:27 PM
Waning Crescent, 4% visible
Pressure 30.20 in
Visibility 10.0 miles
Clouds Scattered Clouds 1800 ft
Overcast 3000 ft
Dew Point 25 °F
Humidity 100%
Rainfall 0.00 in
Snow Depth Not available.
UV 0 out of 12
Pollen .10 out of 12
Air Quality Not available.
Flu Activity Not available.
SPECI KEAU 200804Z AUTO 16006KT 10SM SCT018 OVC030 M02/M06 A3020 RMK AO2 T10221061

More Conditions Fewer Conditions

Pressure 30.20 in
Visibility 10.0 miles
Clouds Scattered Clouds 1800 ft
Overcast 3000 ft
Dew Point 25 °F
Humidity 100%
Rainfall 0.00 in
Snow Depth Not available.
UV 0 out of 12
Pollen .10 out of 12
Air Quality Not available.
Flu Activity Not available.
SPECI KEAU 200804Z AUTO 16006KT 10SM SCT018 OVC030 M02/M06 A3020 RMK AO2 T10221061

More Conditions Fewer Conditions

10-Day Weather Forecast

Almanac

Astronomy

Dec. 20, 2014 Rise Set
Actual Time
Civil Twilight
Nautical Twilight
Astronomical Twilight
Moon
Length of Visible Light
Length of Day
Tomorrow will be .
, % of the Moon is Illuminated

Today's Extremes

State Highs State Lows

Community

WunderPhotos

Upload Photos

1,779,146 photos uploaded!

WunderBlogs® & News

Nearby

Air Quality

  Air Quality AQ Index Pollutant
Not available.

Snow Depth

Station Depth Elevation

Earthquake Activity

City Distance Mag. Time & Date
Minimum magnitude displayed is 2.5.

Coastal Water Temperatures

Place Temperature

Nearby Weather Stations